White Marsh, Virginia
Current Conditions -  °F | °C
As of 2:55 PM on Friday 31 Oct 2014 (Local Time) from KJGG Reporting Station
Clear Clear  
Wind Chill: 66°   Ceiling: Unl
Heat Index: 66°   Visibility: 10mi
Dew Point: 45°   Wind: 6mph
Humidity: 46%   Direction: 50°NE
Pressure: 29.86"   Gusts: NA
Location:  37.34°N, 76.52°W
Report Text: KJGG 311855Z AUTO 05005KT 10SM CLR 19/07 A2986 RMK AO1
Loading
Personal Weather Stations






























Interactive Weather Map
Tropical Storm Tracking
New forecast layout! Learn more

10-Day Weather Forecast

Advertisements
Track Severe Weather on mobile